TFX53 YPAD-YMML
Flight info
| Callsign | TFX53 |
|---|---|
| Flight time | 1h 1m |
| Altitude | 35000 |
| Route | BENDO Y12 ARBEY |
| Aircraft | B738/M-SDE2E3FGHIRWXY/LB1 |
Departure
| Time | 2026-05-07 13:07 |
|---|---|
| Airport | Adelaide International Airport (YPAD) |
Arrival
| Time | 2026-05-07 14:08 |
|---|---|
| Airport | Melbourne Airport (YMML) |
| Time | Latitude | Longitude | Altitude | Speed | Heading |
|---|---|---|---|---|---|
| 2026-05-07 12:36 | -34.94105 | 138.52999 | 26 ft | 0 kts | 100° |
| 2026-05-07 12:58 | -34.94104 | 138.52992 | 23 ft | 2 kts | 100° |
| 2026-05-07 12:58 | -34.94101 | 138.52972 | 25 ft | 2 kts | 101° |
| 2026-05-07 12:58 | -34.94098 | 138.52952 | 23 ft | 2 kts | 104° |
| 2026-05-07 12:59 | -34.94091 | 138.52934 | 23 ft | 2 kts | 152° |
| 2026-05-07 12:59 | -34.94075 | 138.52932 | 21 ft | 2 kts | 191° |
| 2026-05-07 12:59 | -34.94064 | 138.52935 | 23 ft | 0 kts | 192° |
| 2026-05-07 13:01 | -34.94084 | 138.52931 | 21 ft | 8 kts | 190° |
| 2026-05-07 13:01 | -34.94159 | 138.52929 | 23 ft | 13 kts | 173° |
| 2026-05-07 13:02 | -34.94256 | 138.52923 | 22 ft | 14 kts | 189° |
| 2026-05-07 13:02 | -34.94352 | 138.52937 | 21 ft | 14 kts | 155° |
| 2026-05-07 13:02 | -34.94412 | 138.53031 | 22 ft | 14 kts | 122° |
| 2026-05-07 13:02 | -34.94464 | 138.53129 | 22 ft | 14 kts | 123° |
| 2026-05-07 13:03 | -34.94517 | 138.53253 | 22 ft | 18 kts | 102° |
| 2026-05-07 13:03 | -34.94476 | 138.53385 | 24 ft | 17 kts | 50° |
| 2026-05-07 13:03 | -34.94401 | 138.53494 | 22 ft | 16 kts | 50° |
| 2026-05-07 13:03 | -34.94331 | 138.53598 | 24 ft | 16 kts | 50° |
| 2026-05-07 13:04 | -34.94258 | 138.53705 | 24 ft | 18 kts | 50° |
| 2026-05-07 13:04 | -34.94172 | 138.53829 | 24 ft | 19 kts | 50° |
| 2026-05-07 13:04 | -34.94122 | 138.53918 | 24 ft | 11 kts | 81° |
| 2026-05-07 13:04 | -34.94160 | 138.53990 | 23 ft | 6 kts | 140° |
| 2026-05-07 13:05 | -34.94161 | 138.53990 | 23 ft | 0 kts | 140° |
| 2026-05-07 13:05 | -34.94178 | 138.54008 | 28 ft | 4 kts | 140° |
| 2026-05-07 13:05 | -34.94212 | 138.54043 | 28 ft | 9 kts | 140° |
| 2026-05-07 13:05 | -34.94265 | 138.54032 | 28 ft | 9 kts | 230° |
| 2026-05-07 13:06 | -34.94324 | 138.53945 | 27 ft | 30 kts | 230° |
| 2026-05-07 13:06 | -34.94614 | 138.53523 | 21 ft | 98 kts | 230° |
| 2026-05-07 13:06 | -34.95170 | 138.52709 | 49 ft | 146 kts | 230° |
| 2026-05-07 13:06 | -34.95840 | 138.51765 | 573 ft | 151 kts | 227° |
| 2026-05-07 13:07 | -34.96567 | 138.50788 | 1146 ft | 157 kts | 228° |
| 2026-05-07 13:07 | -34.97256 | 138.49768 | 1896 ft | 158 kts | 230° |
| 2026-05-07 13:07 | -34.97996 | 138.48635 | 2296 ft | 184 kts | 230° |
| 2026-05-07 13:07 | -34.98861 | 138.47336 | 2535 ft | 211 kts | 228° |
| 2026-05-07 13:08 | -34.99847 | 138.45898 | 2802 ft | 236 kts | 229° |
| 2026-05-07 13:08 | -35.00909 | 138.44353 | 3640 ft | 237 kts | 228° |
| 2026-05-07 13:08 | -35.02031 | 138.42871 | 4458 ft | 239 kts | 215° |
| 2026-05-07 13:08 | -35.03575 | 138.42103 | 5177 ft | 247 kts | 187° |
| 2026-05-07 13:09 | -35.05289 | 138.42283 | 5967 ft | 252 kts | 165° |
| 2026-05-07 13:09 | -35.06828 | 138.43350 | 6801 ft | 256 kts | 146° |
| 2026-05-07 13:09 | -35.08259 | 138.44692 | 7514 ft | 262 kts | 145° |
| 2026-05-07 13:09 | -35.09657 | 138.46133 | 8284 ft | 267 kts | 134° |
| 2026-05-07 13:10 | -35.10522 | 138.48182 | 9030 ft | 279 kts | 109° |
| 2026-05-07 13:10 | -35.10676 | 138.50585 | 9797 ft | 290 kts | 91° |
| 2026-05-07 13:10 | -35.10519 | 138.53068 | 10414 ft | 300 kts | 90° |
| 2026-05-07 13:10 | -35.10326 | 138.55711 | 10578 ft | 324 kts | 89° |
| 2026-05-07 13:11 | -35.10125 | 138.58540 | 10741 ft | 345 kts | 89° |
| 2026-05-07 13:11 | -35.09923 | 138.61537 | 11088 ft | 359 kts | 89° |
| 2026-05-07 13:11 | -35.09722 | 138.64604 | 11677 ft | 365 kts | 89° |
| 2026-05-07 13:11 | -35.09522 | 138.67712 | 12338 ft | 369 kts | 89° |
| 2026-05-07 13:12 | -35.09325 | 138.70814 | 12977 ft | 373 kts | 89° |
| 2026-05-07 13:12 | -35.09120 | 138.73997 | 13655 ft | 378 kts | 89° |
| 2026-05-07 13:12 | -35.08914 | 138.77212 | 14331 ft | 382 kts | 89° |
| 2026-05-07 13:12 | -35.08704 | 138.80469 | 14953 ft | 386 kts | 89° |
| 2026-05-07 13:13 | -35.08491 | 138.83751 | 15620 ft | 389 kts | 89° |
| 2026-05-07 13:13 | -35.08275 | 138.87061 | 16304 ft | 393 kts | 89° |
| 2026-05-07 13:13 | -35.08057 | 138.90413 | 16898 ft | 398 kts | 89° |
| 2026-05-07 13:13 | -35.07834 | 138.93804 | 17532 ft | 402 kts | 89° |
| 2026-05-07 13:14 | -35.07608 | 138.97229 | 18166 ft | 406 kts | 89° |
| 2026-05-07 13:14 | -35.07382 | 139.00644 | 18774 ft | 410 kts | 89° |
| 2026-05-07 13:14 | -35.07149 | 139.04132 | 19298 ft | 414 kts | 89° |
| 2026-05-07 13:14 | -35.06990 | 139.06510 | 19660 ft | 417 kts | 89° |
| 2026-05-07 13:15 | -35.06756 | 139.10011 | 20182 ft | 421 kts | 89° |
| 2026-05-07 13:15 | -35.06515 | 139.13599 | 20654 ft | 426 kts | 88° |
| 2026-05-07 13:15 | -35.06274 | 139.17222 | 21173 ft | 429 kts | 90° |
| 2026-05-07 13:15 | -35.06505 | 139.20826 | 21644 ft | 425 kts | 109° |
| 2026-05-07 13:16 | -35.07633 | 139.24124 | 22166 ft | 419 kts | 126° |
| 2026-05-07 13:16 | -35.09328 | 139.27009 | 22688 ft | 418 kts | 131° |
| 2026-05-07 13:16 | -35.11100 | 139.29795 | 23137 ft | 422 kts | 132° |
| 2026-05-07 13:16 | -35.12915 | 139.32631 | 23586 ft | 426 kts | 132° |
| 2026-05-07 13:17 | -35.14741 | 139.35515 | 24041 ft | 429 kts | 131° |
| 2026-05-07 13:17 | -35.16561 | 139.38430 | 24440 ft | 432 kts | 131° |
| 2026-05-07 13:17 | -35.18381 | 139.41372 | 24853 ft | 435 kts | 131° |
| 2026-05-07 13:17 | -35.20207 | 139.44339 | 25255 ft | 437 kts | 131° |
| 2026-05-07 13:18 | -35.22019 | 139.47285 | 25630 ft | 440 kts | 131° |
| 2026-05-07 13:18 | -35.23862 | 139.50287 | 26012 ft | 442 kts | 130° |
| 2026-05-07 13:18 | -35.25484 | 139.53515 | 26368 ft | 450 kts | 121° |
| 2026-05-07 13:18 | -35.26829 | 139.57001 | 26730 ft | 454 kts | 118° |
| 2026-05-07 13:19 | -35.28099 | 139.60557 | 27092 ft | 457 kts | 117° |
| 2026-05-07 13:19 | -35.29354 | 139.64139 | 27438 ft | 459 kts | 117° |
| 2026-05-07 13:19 | -35.30625 | 139.67740 | 27775 ft | 461 kts | 117° |
| 2026-05-07 13:19 | -35.31919 | 139.71349 | 28109 ft | 463 kts | 117° |
| 2026-05-07 13:20 | -35.33233 | 139.74960 | 28447 ft | 466 kts | 118° |
| 2026-05-07 13:20 | -35.34566 | 139.78588 | 28736 ft | 469 kts | 118° |
| 2026-05-07 13:20 | -35.35895 | 139.82186 | 29023 ft | 471 kts | 118° |
| 2026-05-07 13:20 | -35.37251 | 139.85850 | 29334 ft | 473 kts | 118° |
| 2026-05-07 13:21 | -35.38612 | 139.89528 | 29636 ft | 475 kts | 118° |
| 2026-05-07 13:21 | -35.39979 | 139.93226 | 29929 ft | 477 kts | 118° |
| 2026-05-07 13:21 | -35.41348 | 139.96936 | 30266 ft | 478 kts | 118° |
| 2026-05-07 13:21 | -35.42718 | 140.00657 | 30629 ft | 478 kts | 118° |
| 2026-05-07 13:22 | -35.44084 | 140.04371 | 30979 ft | 477 kts | 118° |
| 2026-05-07 13:22 | -35.45446 | 140.08082 | 31352 ft | 476 kts | 118° |
| 2026-05-07 13:22 | -35.46802 | 140.11781 | 31698 ft | 475 kts | 117° |
| 2026-05-07 13:22 | -35.48156 | 140.15476 | 32004 ft | 475 kts | 117° |
| 2026-05-07 13:23 | -35.49509 | 140.19173 | 32327 ft | 475 kts | 117° |
| 2026-05-07 13:23 | -35.50860 | 140.22869 | 32647 ft | 475 kts | 118° |
| 2026-05-07 13:23 | -35.52194 | 140.26520 | 32940 ft | 475 kts | 117° |
| 2026-05-07 13:23 | -35.53542 | 140.30216 | 33275 ft | 474 kts | 117° |
| 2026-05-07 13:24 | -35.54886 | 140.33906 | 33622 ft | 472 kts | 117° |
| 2026-05-07 13:24 | -35.56227 | 140.37592 | 33935 ft | 472 kts | 117° |
| 2026-05-07 13:24 | -35.57568 | 140.41282 | 34234 ft | 472 kts | 117° |
| 2026-05-07 13:24 | -35.58907 | 140.44968 | 34419 ft | 474 kts | 117° |
| 2026-05-07 13:25 | -35.61607 | 140.52414 | 34406 ft | 477 kts | 117° |
| 2026-05-07 13:25 | -35.64265 | 140.59775 | 34397 ft | 470 kts | 117° |
| 2026-05-07 13:26 | -35.66911 | 140.67113 | 34418 ft | 469 kts | 118° |
| 2026-05-07 13:26 | -35.69562 | 140.74477 | 34410 ft | 470 kts | 118° |
| 2026-05-07 13:27 | -35.72205 | 140.81838 | 34404 ft | 470 kts | 117° |
| 2026-05-07 13:27 | -35.74849 | 140.89220 | 34408 ft | 471 kts | 118° |
| 2026-05-07 13:28 | -35.77474 | 140.96566 | 34401 ft | 472 kts | 118° |
| 2026-05-07 13:28 | -35.80118 | 141.03984 | 34394 ft | 473 kts | 118° |
| 2026-05-07 13:29 | -35.82759 | 141.11411 | 34403 ft | 473 kts | 118° |
| 2026-05-07 13:29 | -35.85399 | 141.18854 | 34392 ft | 474 kts | 118° |
| 2026-05-07 13:30 | -35.88035 | 141.26304 | 34391 ft | 474 kts | 118° |
| 2026-05-07 13:30 | -35.90658 | 141.33732 | 34391 ft | 475 kts | 118° |
| 2026-05-07 13:31 | -35.93291 | 141.41209 | 34390 ft | 475 kts | 118° |
| 2026-05-07 13:31 | -35.95931 | 141.48722 | 34388 ft | 479 kts | 118° |
| 2026-05-07 13:32 | -35.98596 | 141.56321 | 34380 ft | 483 kts | 118° |
| 2026-05-07 13:32 | -36.01246 | 141.63905 | 34377 ft | 484 kts | 118° |
| 2026-05-07 13:33 | -36.03908 | 141.71541 | 34370 ft | 484 kts | 118° |
| 2026-05-07 13:33 | -36.06562 | 141.79175 | 34368 ft | 483 kts | 117° |
| 2026-05-07 13:34 | -36.10525 | 141.90601 | 34368 ft | 484 kts | 118° |
| 2026-05-07 13:35 | -36.13172 | 141.98260 | 34365 ft | 484 kts | 118° |
| 2026-05-07 13:35 | -36.15818 | 142.05932 | 34375 ft | 484 kts | 118° |
| 2026-05-07 13:36 | -36.18461 | 142.13625 | 34356 ft | 485 kts | 118° |
| 2026-05-07 13:36 | -36.21093 | 142.21327 | 34357 ft | 485 kts | 118° |
| 2026-05-07 13:37 | -36.23708 | 142.29001 | 34376 ft | 486 kts | 118° |
| 2026-05-07 13:37 | -36.26338 | 142.36732 | 34359 ft | 487 kts | 118° |
| 2026-05-07 13:38 | -36.28966 | 142.44481 | 34351 ft | 488 kts | 118° |
| 2026-05-07 13:38 | -36.31593 | 142.52245 | 34339 ft | 488 kts | 118° |
| 2026-05-07 13:39 | -36.34219 | 142.60027 | 34339 ft | 490 kts | 118° |
| 2026-05-07 13:39 | -36.36831 | 142.67788 | 34335 ft | 490 kts | 118° |
| 2026-05-07 13:40 | -36.39461 | 142.75621 | 34338 ft | 491 kts | 118° |
| 2026-05-07 13:40 | -36.42086 | 142.83461 | 34336 ft | 492 kts | 118° |
| 2026-05-07 13:41 | -36.44719 | 142.91335 | 34333 ft | 493 kts | 118° |
| 2026-05-07 13:41 | -36.47330 | 142.99143 | 34327 ft | 493 kts | 118° |
| 2026-05-07 13:42 | -36.49965 | 143.07043 | 34331 ft | 494 kts | 118° |
| 2026-05-07 13:42 | -36.52600 | 143.14963 | 34324 ft | 495 kts | 118° |
| 2026-05-07 13:43 | -36.55240 | 143.22916 | 33679 ft | 501 kts | 118° |
| 2026-05-07 13:43 | -36.56551 | 143.26886 | 33243 ft | 493 kts | 118° |
| 2026-05-07 13:43 | -36.57849 | 143.30824 | 32720 ft | 488 kts | 118° |
| 2026-05-07 13:43 | -36.59112 | 143.34661 | 32238 ft | 483 kts | 118° |
| 2026-05-07 13:44 | -36.60378 | 143.38508 | 31750 ft | 478 kts | 119° |
| 2026-05-07 13:44 | -36.61632 | 143.42318 | 31274 ft | 474 kts | 119° |
| 2026-05-07 13:44 | -36.62877 | 143.46106 | 30802 ft | 469 kts | 119° |
| 2026-05-07 13:44 | -36.64108 | 143.49853 | 30332 ft | 465 kts | 119° |
| 2026-05-07 13:45 | -36.65328 | 143.53572 | 29801 ft | 461 kts | 119° |
| 2026-05-07 13:45 | -36.66535 | 143.57258 | 29261 ft | 456 kts | 119° |
| 2026-05-07 13:45 | -36.67724 | 143.60893 | 28777 ft | 451 kts | 119° |
| 2026-05-07 13:45 | -36.68902 | 143.64499 | 28282 ft | 446 kts | 119° |
| 2026-05-07 13:46 | -36.70048 | 143.68011 | 27801 ft | 441 kts | 119° |
| 2026-05-07 13:46 | -36.71195 | 143.71530 | 27325 ft | 435 kts | 118° |
| 2026-05-07 13:46 | -36.72327 | 143.75008 | 26853 ft | 431 kts | 119° |
| 2026-05-07 13:46 | -36.73448 | 143.78455 | 26397 ft | 426 kts | 119° |
| 2026-05-07 13:47 | -36.74553 | 143.81856 | 25924 ft | 422 kts | 119° |
| 2026-05-07 13:47 | -36.75650 | 143.85237 | 25459 ft | 417 kts | 119° |
| 2026-05-07 13:47 | -36.76732 | 143.88575 | 25006 ft | 413 kts | 119° |
| 2026-05-07 13:47 | -36.77803 | 143.91881 | 24541 ft | 409 kts | 119° |
| 2026-05-07 13:48 | -36.78863 | 143.95158 | 24101 ft | 405 kts | 118° |
| 2026-05-07 13:48 | -36.79913 | 143.98409 | 23607 ft | 402 kts | 118° |
| 2026-05-07 13:48 | -36.80938 | 144.01587 | 23105 ft | 398 kts | 118° |
| 2026-05-07 13:48 | -36.81968 | 144.04782 | 22651 ft | 393 kts | 118° |
| 2026-05-07 13:49 | -36.82981 | 144.07930 | 22192 ft | 388 kts | 118° |
| 2026-05-07 13:49 | -36.83986 | 144.11056 | 21748 ft | 384 kts | 118° |
| 2026-05-07 13:49 | -36.84976 | 144.14136 | 21304 ft | 381 kts | 118° |
| 2026-05-07 13:49 | -36.85957 | 144.17193 | 20877 ft | 377 kts | 118° |
| 2026-05-07 13:50 | -36.86916 | 144.20183 | 20464 ft | 375 kts | 118° |
| 2026-05-07 13:50 | -36.87881 | 144.23196 | 20044 ft | 372 kts | 118° |
| 2026-05-07 13:50 | -36.88841 | 144.26195 | 19638 ft | 370 kts | 119° |
| 2026-05-07 13:50 | -36.89795 | 144.29175 | 19208 ft | 368 kts | 119° |
| 2026-05-07 13:51 | -36.90745 | 144.32149 | 18776 ft | 367 kts | 119° |
| 2026-05-07 13:51 | -36.91690 | 144.35112 | 18308 ft | 366 kts | 119° |
| 2026-05-07 13:51 | -36.92695 | 144.37967 | 17847 ft | 359 kts | 126° |
| 2026-05-07 13:51 | -36.94051 | 144.40518 | 17414 ft | 347 kts | 137° |
| 2026-05-07 13:52 | -36.95623 | 144.42793 | 17010 ft | 343 kts | 139° |
| 2026-05-07 13:52 | -36.97195 | 144.45013 | 16588 ft | 340 kts | 139° |
| 2026-05-07 13:52 | -36.98760 | 144.47223 | 16179 ft | 337 kts | 139° |
| 2026-05-07 13:52 | -37.00306 | 144.49418 | 15779 ft | 335 kts | 139° |
| 2026-05-07 13:53 | -37.01838 | 144.51607 | 15408 ft | 333 kts | 139° |
| 2026-05-07 13:53 | -37.03361 | 144.53790 | 14992 ft | 332 kts | 139° |
| 2026-05-07 13:53 | -37.04855 | 144.55938 | 14595 ft | 330 kts | 139° |
| 2026-05-07 13:53 | -37.06361 | 144.58106 | 14204 ft | 329 kts | 139° |
| 2026-05-07 13:54 | -37.07859 | 144.60266 | 13774 ft | 327 kts | 139° |
| 2026-05-07 13:54 | -37.09345 | 144.62413 | 13341 ft | 325 kts | 139° |
| 2026-05-07 13:54 | -37.10823 | 144.64549 | 12934 ft | 323 kts | 139° |
| 2026-05-07 13:54 | -37.12292 | 144.66673 | 12531 ft | 320 kts | 139° |
| 2026-05-07 13:55 | -37.13744 | 144.68774 | 12134 ft | 318 kts | 139° |
| 2026-05-07 13:55 | -37.15187 | 144.70864 | 11757 ft | 316 kts | 139° |
| 2026-05-07 13:55 | -37.16743 | 144.72718 | 11358 ft | 302 kts | 155° |
| 2026-05-07 13:55 | -37.18619 | 144.73732 | 11136 ft | 286 kts | 171° |
| 2026-05-07 13:56 | -37.20498 | 144.74261 | 10997 ft | 276 kts | 174° |
| 2026-05-07 13:56 | -37.22351 | 144.74724 | 10834 ft | 267 kts | 175° |
| 2026-05-07 13:56 | -37.24152 | 144.75172 | 10685 ft | 260 kts | 175° |
| 2026-05-07 13:56 | -37.25920 | 144.75619 | 10547 ft | 258 kts | 174° |
| 2026-05-07 13:57 | -37.27693 | 144.76074 | 10084 ft | 264 kts | 174° |
| 2026-05-07 13:57 | -37.29499 | 144.76545 | 9686 ft | 265 kts | 174° |
| 2026-05-07 13:57 | -37.31296 | 144.77019 | 9338 ft | 263 kts | 174° |
| 2026-05-07 13:57 | -37.33081 | 144.77490 | 9012 ft | 261 kts | 175° |
| 2026-05-07 13:58 | -37.34852 | 144.77864 | 8776 ft | 256 kts | 178° |
| 2026-05-07 13:58 | -37.36604 | 144.78162 | 8529 ft | 252 kts | 178° |
| 2026-05-07 13:58 | -37.38324 | 144.78458 | 8298 ft | 248 kts | 178° |
| 2026-05-07 13:58 | -37.40023 | 144.78744 | 8082 ft | 245 kts | 179° |
| 2026-05-07 13:59 | -37.41694 | 144.79028 | 7859 ft | 245 kts | 179° |
| 2026-05-07 13:59 | -37.43378 | 144.79318 | 7630 ft | 245 kts | 179° |
| 2026-05-07 13:59 | -37.45072 | 144.79617 | 7410 ft | 245 kts | 178° |
| 2026-05-07 13:59 | -37.46766 | 144.79929 | 7189 ft | 246 kts | 177° |
| 2026-05-07 14:00 | -37.48460 | 144.80295 | 6960 ft | 247 kts | 176° |
| 2026-05-07 14:00 | -37.50160 | 144.80669 | 6725 ft | 248 kts | 176° |
| 2026-05-07 14:00 | -37.51858 | 144.81044 | 6492 ft | 248 kts | 176° |
| 2026-05-07 14:00 | -37.53554 | 144.81460 | 6264 ft | 250 kts | 170° |
| 2026-05-07 14:01 | -37.55079 | 144.82578 | 6025 ft | 269 kts | 143° |
| 2026-05-07 14:01 | -37.56139 | 144.84594 | 5772 ft | 288 kts | 117° |
| 2026-05-07 14:01 | -37.56554 | 144.87104 | 5540 ft | 296 kts | 102° |
| 2026-05-07 14:01 | -37.56698 | 144.89700 | 5256 ft | 298 kts | 99° |
| 2026-05-07 14:02 | -37.56797 | 144.92312 | 4966 ft | 298 kts | 99° |
| 2026-05-07 14:02 | -37.56900 | 144.94905 | 4657 ft | 293 kts | 100° |
| 2026-05-07 14:02 | -37.57016 | 144.97420 | 4396 ft | 282 kts | 100° |
| 2026-05-07 14:02 | -37.57294 | 144.99795 | 4123 ft | 262 kts | 121° |
| 2026-05-07 14:03 | -37.58257 | 145.01540 | 3955 ft | 229 kts | 150° |
| 2026-05-07 14:03 | -37.59535 | 145.02547 | 3766 ft | 207 kts | 166° |
| 2026-05-07 14:03 | -37.60841 | 145.03059 | 3613 ft | 187 kts | 182° |
| 2026-05-07 14:03 | -37.62087 | 145.03050 | 3435 ft | 173 kts | 192° |
| 2026-05-07 14:04 | -37.63251 | 145.02961 | 3276 ft | 166 kts | 192° |
| 2026-05-07 14:04 | -37.64398 | 145.02869 | 3119 ft | 166 kts | 193° |
| 2026-05-07 14:04 | -37.65543 | 145.02758 | 2964 ft | 161 kts | 200° |
| 2026-05-07 14:04 | -37.66379 | 145.01996 | 2800 ft | 151 kts | 247° |
| 2026-05-07 14:05 | -37.66536 | 145.00668 | 2692 ft | 155 kts | 254° |
| 2026-05-07 14:05 | -37.66865 | 144.99383 | 2551 ft | 155 kts | 252° |
| 2026-05-07 14:05 | -37.66927 | 144.97999 | 2473 ft | 160 kts | 265° |
| 2026-05-07 14:05 | -37.66900 | 144.96621 | 2286 ft | 151 kts | 266° |
| 2026-05-07 14:06 | -37.66841 | 144.95363 | 2093 ft | 138 kts | 268° |
| 2026-05-07 14:06 | -37.66774 | 144.94184 | 1926 ft | 132 kts | 268° |
| 2026-05-07 14:06 | -37.66709 | 144.93053 | 1747 ft | 129 kts | 269° |
| 2026-05-07 14:06 | -37.66643 | 144.91928 | 1564 ft | 130 kts | 269° |
| 2026-05-07 14:07 | -37.66598 | 144.91166 | 1444 ft | 132 kts | 270° |
| 2026-05-07 14:07 | -37.66501 | 144.89650 | 1204 ft | 132 kts | 273° |
| 2026-05-07 14:07 | -37.66481 | 144.88860 | 1069 ft | 133 kts | 270° |
| 2026-05-07 14:07 | -37.66386 | 144.87338 | 841 ft | 129 kts | 275° |
| 2026-05-07 14:08 | -37.66313 | 144.86213 | 685 ft | 128 kts | 274° |
| 2026-05-07 14:08 | -37.66264 | 144.85468 | 560 ft | 128 kts | 273° |
| 2026-05-07 14:08 | -37.66201 | 144.84360 | 415 ft | 124 kts | 274° |
| 2026-05-07 14:08 | -37.66156 | 144.83566 | 415 ft | 47 kts | 274° |
| 2026-05-07 14:09 | -37.66135 | 144.83176 | 411 ft | 19 kts | 270° |
| 2026-05-07 14:09 | -37.66142 | 144.83064 | 409 ft | 19 kts | 263° |
| 2026-05-07 14:09 | -37.66180 | 144.82912 | 405 ft | 16 kts | 246° |
| 2026-05-07 14:09 | -37.66228 | 144.82783 | 399 ft | 12 kts | 243° |
| 2026-05-07 14:10 | -37.66279 | 144.82701 | 391 ft | 13 kts | 225° |
| 2026-05-07 14:10 | -37.66359 | 144.82676 | 389 ft | 13 kts | 156° |
| 2026-05-07 14:10 | -37.66440 | 144.82799 | 385 ft | 17 kts | 106° |
| 2026-05-07 14:10 | -37.66452 | 144.82895 | 386 ft | 17 kts | 95° |
| 2026-05-07 14:11 | -37.66461 | 144.83038 | 390 ft | 16 kts | 94° |
| 2026-05-07 14:11 | -37.66469 | 144.83175 | 396 ft | 15 kts | 94° |
| 2026-05-07 14:11 | -37.66476 | 144.83306 | 400 ft | 15 kts | 94° |
| 2026-05-07 14:11 | -37.66483 | 144.83432 | 402 ft | 14 kts | 94° |
| 2026-05-07 14:12 | -37.66491 | 144.83555 | 400 ft | 15 kts | 94° |
| 2026-05-07 14:12 | -37.66500 | 144.83701 | 404 ft | 19 kts | 94° |
| 2026-05-07 14:12 | -37.66509 | 144.83865 | 403 ft | 17 kts | 94° |
| 2026-05-07 14:12 | -37.66562 | 144.83940 | 401 ft | 13 kts | 169° |
| 2026-05-07 14:13 | -37.66669 | 144.83961 | 396 ft | 18 kts | 170° |
| 2026-05-07 14:13 | -37.66720 | 144.84078 | 394 ft | 17 kts | 92° |
| 2026-05-07 14:13 | -37.66789 | 144.84188 | 391 ft | 17 kts | 158° |
| 2026-05-07 14:13 | -37.66905 | 144.84213 | 387 ft | 17 kts | 171° |
| 2026-05-07 14:14 | -37.67027 | 144.84236 | 384 ft | 18 kts | 171° |
| 2026-05-07 14:14 | -37.67149 | 144.84259 | 382 ft | 18 kts | 170° |
| 2026-05-07 14:14 | -37.67270 | 144.84281 | 379 ft | 18 kts | 169° |
| 2026-05-07 14:14 | -37.67315 | 144.84294 | 379 ft | 3 kts | 148° |
| 2026-05-07 14:15 | -37.67324 | 144.84319 | 379 ft | 4 kts | 91° |
| 2026-05-07 14:15 | -37.67316 | 144.84377 | 380 ft | 3 kts | 80° |
| 2026-05-07 14:15 | -37.67314 | 144.84399 | 380 ft | 2 kts | 82° |